createdAt,value
2018-05-27T00:00:11.734Z,64.17
2018-05-27T00:02:41.046Z,64.78
2018-05-27T00:05:10.481Z,64.67
2018-05-27T00:07:39.726Z,64.41
2018-05-27T00:10:09.402Z,64.18
2018-05-27T00:12:39.386Z,63.84
2018-05-27T00:15:08.610Z,63.65
2018-05-27T00:17:42.362Z,63.33
2018-05-27T00:20:11.642Z,63.71
2018-05-27T00:22:40.850Z,63.31
2018-05-27T00:25:10.161Z,63.44
2018-05-27T00:27:39.476Z,63.22
2018-05-27T00:30:08.681Z,62.88
2018-05-27T00:32:37.946Z,63.33
2018-05-27T00:35:07.285Z,63.20
2018-05-27T00:37:40.027Z,63.07
2018-05-27T00:40:10.922Z,63.05
2018-05-27T00:42:40.928Z,62.86
2018-05-27T00:45:10.206Z,62.62
2018-05-27T00:47:39.476Z,62.96
2018-05-27T00:50:08.679Z,62.77
2018-05-27T00:52:37.906Z,62.76
2018-05-27T00:55:07.125Z,62.41
2018-05-27T00:57:37.142Z,62.26
2018-05-27T01:00:06.366Z,62.19
2018-05-27T01:02:36.354Z,62.12
2018-05-27T01:05:05.712Z,62.25
2018-05-27T01:07:39.887Z,61.64
2018-05-27T01:10:09.869Z,61.53
2018-05-27T01:12:39.115Z,61.38
2018-05-27T01:15:10.505Z,61.32
2018-05-27T01:17:39.811Z,61.09
2018-05-27T01:20:09.026Z,61.02
2018-05-27T01:22:38.690Z,61.29
2018-05-27T01:25:07.883Z,61.18
2018-05-27T01:27:37.142Z,61.22
2018-05-27T01:30:07.124Z,60.93
2018-05-27T01:32:36.403Z,61.43
2018-05-27T01:35:05.609Z,61.36
2018-05-27T01:37:35.899Z,61.17
2018-05-27T01:40:05.378Z,61.17
2018-05-27T01:42:35.362Z,61.24
2018-05-27T01:45:05.757Z,61.56
2018-05-27T01:47:35.014Z,62.25
2018-05-27T01:50:04.277Z,62.44
2018-05-27T01:52:33.485Z,62.97
2018-05-27T01:55:02.783Z,63.34
2018-05-27T01:57:31.982Z,63.76
2018-05-27T02:00:03.024Z,64.10
2018-05-27T02:02:33.239Z,64.11
2018-05-27T02:05:02.476Z,64.33
2018-05-27T02:07:31.700Z,64.62
2018-05-27T02:10:00.926Z,65.07
2018-05-27T02:12:30.167Z,65.33
2018-05-27T02:14:59.406Z,65.66
2018-05-27T02:17:28.605Z,65.73
2018-05-27T02:20:00.870Z,66.27
2018-05-27T02:22:33.857Z,66.70
2018-05-27T02:25:03.082Z,66.74
2018-05-27T02:27:32.317Z,66.54
2018-05-27T02:30:01.534Z,67.04
2018-05-27T02:32:30.788Z,67.29
2018-05-27T02:35:00.418Z,67.16
2018-05-27T02:37:30.482Z,67.46
2018-05-27T02:40:00.932Z,67.38
2018-05-27T02:42:30.165Z,67.74
2018-05-27T02:45:00.449Z,68.25
2018-05-27T02:47:29.690Z,68.54
2018-05-27T02:49:59.685Z,68.65
2018-05-27T02:52:29.677Z,68.79
2018-05-27T02:54:59.026Z,68.88
2018-05-27T02:57:29.910Z,69.12
2018-05-27T02:59:59.113Z,69.26
2018-05-27T03:02:29.693Z,69.70
2018-05-27T03:04:59.649Z,70.04
2018-05-27T03:07:29.069Z,69.90
2018-05-27T03:09:58.472Z,69.94
2018-05-27T03:12:29.637Z,69.90
2018-05-27T03:14:58.894Z,70.45
2018-05-27T03:17:28.418Z,70.94
2018-05-27T03:19:57.629Z,71.30
2018-05-27T03:22:29.607Z,71.61
2018-05-27T03:24:59.586Z,71.75
2018-05-27T03:27:28.799Z,72.35
2018-05-27T03:29:58.221Z,72.81
2018-05-27T03:32:30.483Z,73.18
2018-05-27T03:35:00.450Z,73.75
2018-05-27T03:37:32.808Z,73.78
2018-05-27T03:40:02.041Z,73.71
2018-05-27T03:42:31.260Z,73.82
2018-05-27T03:45:01.236Z,73.60
2018-05-27T03:47:30.486Z,73.32
2018-05-27T03:50:00.481Z,73.01
2018-05-27T03:52:29.725Z,72.58
2018-05-27T03:54:58.942Z,72.01
2018-05-27T03:57:28.378Z,72.06
2018-05-27T03:59:57.595Z,71.47
2018-05-27T04:02:27.637Z,71.40
2018-05-27T04:05:14.520Z,71.39
2018-05-27T04:08:01.294Z,70.98
2018-05-27T04:10:32.150Z,70.74
2018-05-27T04:13:01.375Z,70.78
2018-05-27T04:15:30.770Z,70.17
2018-05-27T04:18:00.736Z,69.80
2018-05-27T04:20:34.677Z,69.40
2018-05-27T04:23:04.039Z,69.26
2018-05-27T04:25:35.113Z,69.34
2018-05-27T04:28:04.317Z,68.75
2018-05-27T04:30:33.596Z,68.18
2018-05-27T04:33:02.833Z,68.23
2018-05-27T04:35:32.366Z,68.53
2018-05-27T04:38:01.569Z,68.28
2018-05-27T04:40:30.794Z,68.27
2018-05-27T04:43:00.033Z,68.25
2018-05-27T04:45:30.180Z,68.45
2018-05-27T04:47:59.393Z,69.18
2018-05-27T04:50:31.392Z,69.39
2018-05-27T04:53:01.488Z,69.21
2018-05-27T04:55:30.773Z,68.76
2018-05-27T04:58:00.201Z,68.50
2018-05-27T05:00:33.528Z,68.20
2018-05-27T05:03:02.733Z,67.21
2018-05-27T05:05:31.988Z,66.83
2018-05-27T05:08:01.195Z,66.75
2018-05-27T05:10:32.581Z,66.97
2018-05-27T05:13:01.775Z,66.38
2018-05-27T05:15:30.995Z,66.53
2018-05-27T05:18:00.201Z,66.44
2018-05-27T05:20:29.477Z,65.45
2018-05-27T05:22:58.664Z,65.30
2018-05-27T05:25:27.899Z,64.33
2018-05-27T05:27:57.114Z,64.37
2018-05-27T05:30:26.388Z,63.91
2018-05-27T05:32:55.677Z,64.02
2018-05-27T05:35:25.719Z,63.78
2018-05-27T05:38:02.212Z,63.16
2018-05-27T05:40:33.766Z,63.06
2018-05-27T05:45:38.527Z,62.31
2018-05-27T05:48:08.540Z,61.78
2018-05-27T05:50:38.524Z,61.47
2018-05-27T05:53:11.291Z,59.66
2018-05-27T05:55:40.531Z,59.35
2018-05-27T05:58:14.063Z,58.42
2018-05-27T06:00:43.290Z,58.18
2018-05-27T06:03:12.533Z,57.85
2018-05-27T06:05:41.796Z,58.23
2018-05-27T06:08:11.069Z,58.54
2018-05-27T06:10:40.321Z,59.04
2018-05-27T06:13:10.729Z,59.10
2018-05-27T06:15:40.653Z,58.86
2018-05-27T06:18:10.869Z,59.42
2018-05-27T06:20:41.876Z,59.14
2018-05-27T06:23:11.117Z,58.87
2018-05-27T06:25:41.093Z,58.14
2018-05-27T06:28:11.133Z,57.64
2018-05-27T06:30:40.353Z,58.57
2018-05-27T06:33:09.607Z,57.86
2018-05-27T06:35:38.819Z,58.13
2018-05-27T06:38:10.682Z,57.53
2018-05-27T06:40:39.941Z,58.26
2018-05-27T06:43:09.166Z,57.50
